createdAt,value
2023-01-06T00:02:06.916Z,4.00
2023-01-06T00:04:52.463Z,2.33
2023-01-06T00:07:51.187Z,3.13
2023-01-06T00:13:35.102Z,1.87
2023-01-06T00:16:36.666Z,1.53
2023-01-06T00:19:31.233Z,1.93
2023-01-06T00:22:23.467Z,2.10
2023-01-06T00:25:02.722Z,2.30
2023-01-06T00:28:11.756Z,2.07
2023-01-06T00:30:57.558Z,3.00
2023-01-06T00:33:55.907Z,2.80
2023-01-06T00:37:02.073Z,1.80
2023-01-06T00:39:37.904Z,2.37
2023-01-06T00:42:23.360Z,2.40
2023-01-06T00:45:25.242Z,2.00
2023-01-06T00:48:07.850Z,2.40
2023-01-06T00:50:50.976Z,2.33
2023-01-06T01:01:42.135Z,2.57
2023-01-06T01:04:47.084Z,2.33
2023-01-06T01:18:49.818Z,2.10
2023-01-06T01:29:10.802Z,3.10
2023-01-06T01:31:49.536Z,1.67
2023-01-06T01:34:52.520Z,2.20
2023-01-06T01:38:52.364Z,1.80
2023-01-06T01:47:10.080Z,1.50
2023-01-06T01:59:38.429Z,2.17
2023-01-06T02:06:47.605Z,1.77
2023-01-06T02:13:50.974Z,1.70
2023-01-06T02:16:55.728Z,1.43
2023-01-06T02:21:13.450Z,1.30
2023-01-06T02:24:19.821Z,1.53
2023-01-06T02:28:10.064Z,1.87
2023-01-06T02:40:39.712Z,1.37
2023-01-06T02:44:07.465Z,1.17
2023-01-06T02:54:28.026Z,1.30
2023-01-06T02:57:34.285Z,1.30
2023-01-06T03:01:21.372Z,1.73
2023-01-06T03:08:00.094Z,1.23
2023-01-06T03:11:50.574Z,1.10
2023-01-06T03:15:15.134Z,2.17
2023-01-06T03:22:54.648Z,1.47
2023-01-06T03:43:18.432Z,0.97
2023-01-06T03:54:50.746Z,1.10
2023-01-06T03:57:53.906Z,1.03
2023-01-06T04:04:28.288Z,1.20
2023-01-06T04:07:44.252Z,1.40
2023-01-06T04:10:31.303Z,1.10
2023-01-06T04:13:20.589Z,1.47
2023-01-06T04:15:57.424Z,1.17
2023-01-06T04:25:26.054Z,1.10
2023-01-06T04:27:59.191Z,1.37
2023-01-06T04:30:44.770Z,1.63
2023-01-06T04:33:25.123Z,1.57
2023-01-06T04:43:17.733Z,1.10
2023-01-06T04:46:11.859Z,1.30
2023-01-06T04:55:42.299Z,1.37
2023-01-06T04:58:51.568Z,1.03
2023-01-06T05:01:22.427Z,1.70
2023-01-06T05:08:09.214Z,1.33
2023-01-06T05:10:47.832Z,1.27
2023-01-06T05:13:52.037Z,1.00
2023-01-06T05:16:38.610Z,1.13
2023-01-06T05:19:31.301Z,1.63
2023-01-06T05:22:24.457Z,1.90
2023-01-06T05:25:08.811Z,2.00
2023-01-06T05:28:00.232Z,1.67
2023-01-06T05:31:00.149Z,1.53
2023-01-06T05:33:56.140Z,1.77
2023-01-06T05:39:43.826Z,1.30
2023-01-06T05:42:20.944Z,2.00
2023-01-06T05:44:58.281Z,2.60
2023-01-06T05:48:11.162Z,2.43
2023-01-06T05:51:04.213Z,1.30
2023-01-06T05:53:54.826Z,1.93
2023-01-06T05:57:10.171Z,1.80
2023-01-06T06:00:08.426Z,2.00
2023-01-06T06:02:46.231Z,2.10
2023-01-06T06:09:00.837Z,3.07
2023-01-06T06:11:48.527Z,2.43
2023-01-06T06:18:07.488Z,2.07
2023-01-06T06:20:50.055Z,1.90
2023-01-06T06:23:32.142Z,1.87
2023-01-06T06:26:17.599Z,4.30
2023-01-06T06:29:16.153Z,1.73
2023-01-06T06:32:00.357Z,1.93
2023-01-06T06:34:57.001Z,2.20
2023-01-06T06:47:11.621Z,3.40
2023-01-06T06:50:20.875Z,2.17
2023-01-06T06:53:02.668Z,3.27
2023-01-06T06:56:00.953Z,2.70
2023-01-06T06:59:06.606Z,3.30
2023-01-06T07:02:53.712Z,2.53
2023-01-06T07:05:31.321Z,4.20
2023-01-06T07:08:18.743Z,3.23
2023-01-06T07:11:23.480Z,3.93
2023-01-06T07:14:07.085Z,3.43
2023-01-06T07:16:48.707Z,4.37
2023-01-06T07:19:56.801Z,3.27
2023-01-06T07:22:41.575Z,2.67
2023-01-06T07:32:10.283Z,3.50
2023-01-06T07:34:51.653Z,4.47
2023-01-06T07:40:47.910Z,4.30
2023-01-06T07:43:25.536Z,3.87
2023-01-06T07:46:07.307Z,3.93
2023-01-06T07:49:03.881Z,4.30
2023-01-06T07:51:56.530Z,4.43
2023-01-06T07:54:35.987Z,4.70
2023-01-06T07:57:28.825Z,4.97
2023-01-06T08:03:54.993Z,5.07
2023-01-06T08:07:02.780Z,4.30
2023-01-06T08:12:55.026Z,4.60
2023-01-06T08:15:42.516Z,5.60
2023-01-06T08:29:33.654Z,5.40
2023-01-06T08:32:22.929Z,5.63
2023-01-06T08:35:05.740Z,6.07
2023-01-06T08:37:45.179Z,5.00
2023-01-06T08:41:04.797Z,5.77
2023-01-06T08:43:36.977Z,5.57
2023-01-06T08:46:33.176Z,7.13
2023-01-06T08:49:30.834Z,6.40
2023-01-06T08:52:14.371Z,6.60
2023-01-06T08:54:59.670Z,6.23
2023-01-06T08:58:01.086Z,6.40
2023-01-06T09:00:49.137Z,5.87
2023-01-06T09:03:37.678Z,6.67
2023-01-06T09:06:45.689Z,6.10
2023-01-06T09:09:32.230Z,6.87
2023-01-06T09:12:11.738Z,6.70
2023-01-06T09:14:51.210Z,7.17
2023-01-06T09:17:33.722Z,6.10
2023-01-06T09:23:49.326Z,7.50
2023-01-06T09:26:31.231Z,8.17
2023-01-06T09:29:07.292Z,7.73
2023-01-06T09:31:53.035Z,8.43
2023-01-06T09:34:48.164Z,9.13
2023-01-06T09:37:33.878Z,8.23
2023-01-06T09:40:21.578Z,8.93
2023-01-06T09:44:01.314Z,8.90
2023-01-06T09:47:07.008Z,8.20
2023-01-06T09:53:14.996Z,7.90
2023-01-06T09:56:22.565Z,9.50
2023-01-06T09:59:42.790Z,9.40
2023-01-06T10:03:01.238Z,10.10
2023-01-06T10:06:30.228Z,8.77
2023-01-06T10:10:32.332Z,9.77
2023-01-06T10:14:27.046Z,8.73
2023-01-06T10:18:11.968Z,9.27
2023-01-06T10:21:09.459Z,9.80
2023-01-06T10:24:22.501Z,9.17
2023-01-06T10:27:23.945Z,8.30
2023-01-06T10:30:10.227Z,8.60
2023-01-06T10:33:09.349Z,8.53
2023-01-06T10:36:02.001Z,8.07
2023-01-06T10:38:56.170Z,7.80
2023-01-06T10:42:26.437Z,8.03
2023-01-06T10:45:29.766Z,7.97
2023-01-06T10:48:10.772Z,8.23
2023-01-06T10:50:50.104Z,7.03
2023-01-06T10:53:28.260Z,7.37
2023-01-06T10:56:02.743Z,7.03
2023-01-06T10:58:53.543Z,7.30
2023-01-06T11:05:44.673Z,8.47
2023-01-06T11:08:31.289Z,9.70
2023-01-06T11:11:28.956Z,7.33
2023-01-06T11:14:29.129Z,7.13
2023-01-06T11:17:50.490Z,6.67
2023-01-06T11:20:47.399Z,6.57
2023-01-06T11:28:03.478Z,7.07
2023-01-06T11:31:01.341Z,6.83
2023-01-06T11:34:40.796Z,7.13
2023-01-06T11:37:27.786Z,6.33
2023-01-06T11:40:14.317Z,6.23
2023-01-06T11:43:28.313Z,7.50
2023-01-06T11:46:32.069Z,6.27
2023-01-06T11:49:33.119Z,6.80
2023-01-06T11:52:26.202Z,6.60
2023-01-06T11:55:30.919Z,5.03
2023-01-06T11:59:07.278Z,5.90
2023-01-06T12:02:15.506Z,6.80
2023-01-06T12:05:07.525Z,9.00
2023-01-06T12:08:08.910Z,6.17
2023-01-06T12:14:27.493Z,6.50
2023-01-06T12:20:46.698Z,6.83
2023-01-06T12:23:23.144Z,6.40
2023-01-06T12:26:27.996Z,7.00
2023-01-06T12:33:20.223Z,6.00
2023-01-06T12:36:20.142Z,6.17
2023-01-06T12:39:12.694Z,5.23
2023-01-06T12:42:49.565Z,5.20
2023-01-06T12:49:08.348Z,5.63
2023-01-06T12:52:11.180Z,4.53
2023-01-06T12:55:00.199Z,4.47
2023-01-06T12:58:21.689Z,3.70
2023-01-06T13:01:22.807Z,3.50
2023-01-06T13:04:32.763Z,4.37
2023-01-06T13:07:52.682Z,3.30
2023-01-06T13:10:43.929Z,3.20
2023-01-06T13:14:39.331Z,3.70
2023-01-06T13:18:15.631Z,3.00
2023-01-06T13:21:17.153Z,2.93
2023-01-06T13:24:11.664Z,2.07
2023-01-06T13:27:19.138Z,2.53
2023-01-06T13:30:11.808Z,2.33
2023-01-06T13:33:39.331Z,2.23
2023-01-06T13:37:08.538Z,2.60
2023-01-06T13:40:24.305Z,1.70
2023-01-06T13:43:28.688Z,1.90
2023-01-06T13:46:23.258Z,1.90
2023-01-06T13:52:17.710Z,1.60
2023-01-06T13:55:08.196Z,3.50
2023-01-06T13:57:55.722Z,3.50
2023-01-06T14:00:41.924Z,2.27
2023-01-06T14:03:49.227Z,2.70
2023-01-06T14:06:34.799Z,2.23
2023-01-06T14:10:00.499Z,3.10
2023-01-06T14:15:58.500Z,1.77
2023-01-06T14:18:43.410Z,1.47
2023-01-06T14:21:22.407Z,1.60
2023-01-06T14:24:23.891Z,1.27
2023-01-06T14:27:21.348Z,1.00
2023-01-06T14:30:10.572Z,0.70
2023-01-06T14:34:08.062Z,1.20
2023-01-06T14:36:52.523Z,1.20
2023-01-06T14:42:45.018Z,1.10
2023-01-06T14:45:44.904Z,1.10
2023-01-06T14:48:28.637Z,1.10
2023-01-06T14:51:10.313Z,0.80
2023-01-06T14:56:54.441Z,1.10
2023-01-06T14:59:34.452Z,1.03
2023-01-06T15:02:31.157Z,1.07
2023-01-06T15:05:12.309Z,1.37
2023-01-06T15:08:20.485Z,1.30
2023-01-06T15:10:52.501Z,1.27
2023-01-06T15:13:32.037Z,1.37
2023-01-06T15:16:40.608Z,1.17
2023-01-06T15:19:16.020Z,1.13
2023-01-06T15:21:53.603Z,0.97
2023-01-06T15:24:44.912Z,1.00
2023-01-06T15:27:44.369Z,1.17
2023-01-06T15:30:44.777Z,1.40
2023-01-06T15:36:24.567Z,2.30
2023-01-06T15:39:26.438Z,3.57
2023-01-06T15:42:24.109Z,1.57
2023-01-06T15:45:21.610Z,1.50
2023-01-06T15:48:06.315Z,1.50
2023-01-06T15:50:44.392Z,1.37
2023-01-06T15:53:39.907Z,1.50
2023-01-06T15:56:26.656Z,1.20
2023-01-06T15:59:32.610Z,1.63
2023-01-06T16:02:30.444Z,1.90
2023-01-06T16:06:00.329Z,1.67
2023-01-06T16:13:14.528Z,2.50
2023-01-06T16:15:54.864Z,1.93
2023-01-06T16:18:55.919Z,2.40
2023-01-06T16:21:47.681Z,3.70
2023-01-06T16:27:51.644Z,5.00
2023-01-06T16:34:56.552Z,1.83
2023-01-06T16:37:58.154Z,2.17
2023-01-06T16:40:39.989Z,2.83
2023-01-06T16:43:21.777Z,2.30
2023-01-06T16:49:26.747Z,2.50
2023-01-06T16:52:21.011Z,2.70
2023-01-06T16:55:09.821Z,2.13
2023-01-06T16:57:47.802Z,1.90
2023-01-06T17:00:24.398Z,2.30
2023-01-06T17:02:55.920Z,2.77
2023-01-06T17:05:30.307Z,2.77
2023-01-06T17:08:16.819Z,2.83
2023-01-06T17:10:54.751Z,2.40
2023-01-06T17:13:49.847Z,2.43
2023-01-06T17:16:55.583Z,2.07
2023-01-06T17:19:53.522Z,2.03
2023-01-06T17:25:44.100Z,2.30
2023-01-06T17:28:25.303Z,2.20
2023-01-06T17:31:21.382Z,2.50
2023-01-06T17:34:09.139Z,1.73
2023-01-06T17:37:00.640Z,2.03
2023-01-06T17:40:15.271Z,2.63
2023-01-06T17:43:12.547Z,2.10
2023-01-06T17:45:46.485Z,1.80
2023-01-06T17:56:08.350Z,2.33
2023-01-06T17:59:02.284Z,2.30
2023-01-06T18:01:40.374Z,2.60
2023-01-06T18:05:11.867Z,2.77
2023-01-06T18:07:55.652Z,2.90
2023-01-06T18:10:27.851Z,2.90
2023-01-06T18:13:17.559Z,2.97
2023-01-06T18:16:31.153Z,6.10
2023-01-06T18:19:35.087Z,2.83
2023-01-06T18:22:58.382Z,2.90
2023-01-06T18:25:39.059Z,3.23
2023-01-06T18:32:37.503Z,3.73
2023-01-06T18:35:40.491Z,3.13
2023-01-06T18:38:17.879Z,2.80
2023-01-06T18:40:56.203Z,3.40
2023-01-06T18:43:40.847Z,2.90
2023-01-06T18:46:22.473Z,3.20
2023-01-06T18:49:05.443Z,2.90
2023-01-06T18:51:35.744Z,3.03
2023-01-06T18:55:26.178Z,4.07
2023-01-06T19:02:03.697Z,4.00
2023-01-06T19:04:52.631Z,5.30
2023-01-06T19:07:34.562Z,4.00
2023-01-06T19:10:31.963Z,5.10
2023-01-06T19:13:07.176Z,6.20
2023-01-06T19:15:43.702Z,4.87
2023-01-06T19:18:32.488Z,3.37
2023-01-06T19:22:13.953Z,4.47
2023-01-06T19:25:07.626Z,3.67
2023-01-06T19:27:57.663Z,3.90
2023-01-06T19:31:05.491Z,3.43
2023-01-06T19:42:20.278Z,3.80
2023-01-06T19:45:22.100Z,4.27
2023-01-06T19:48:18.158Z,4.40
2023-01-06T19:51:10.540Z,5.13
2023-01-06T19:54:06.290Z,6.10
2023-01-06T19:57:40.540Z,9.40
2023-01-06T20:01:24.358Z,6.57
2023-01-06T20:04:02.644Z,6.00
2023-01-06T20:07:36.242Z,5.47
2023-01-06T20:17:19.823Z,5.73
2023-01-06T20:23:16.363Z,4.70
2023-01-06T20:29:34.723Z,5.23
2023-01-06T20:32:30.730Z,4.90
2023-01-06T20:35:17.541Z,5.00
2023-01-06T20:37:48.191Z,4.80
2023-01-06T20:40:33.510Z,4.93
2023-01-06T20:43:06.854Z,4.63
2023-01-06T20:45:35.935Z,4.83
2023-01-06T20:48:10.628Z,5.30
2023-01-06T20:50:42.704Z,5.77
2023-01-06T20:53:26.783Z,6.00
2023-01-06T20:56:17.408Z,5.67
2023-01-06T20:58:57.989Z,5.73
2023-01-06T21:01:30.136Z,6.37
2023-01-06T21:03:57.693Z,7.23
2023-01-06T21:06:50.263Z,7.10
2023-01-06T21:09:32.720Z,6.70
2023-01-06T21:12:05.713Z,6.47
2023-01-06T21:14:37.677Z,7.20
2023-01-06T21:17:17.640Z,7.37
2023-01-06T21:19:59.140Z,7.30
2023-01-06T21:23:10.823Z,7.30
2023-01-06T21:26:15.031Z,6.60
2023-01-06T21:29:11.796Z,8.20
2023-01-06T21:36:08.514Z,7.83
2023-01-06T21:38:45.977Z,8.20
2023-01-06T21:41:43.908Z,8.07
2023-01-06T21:44:37.992Z,8.20
2023-01-06T21:50:42.081Z,7.63
2023-01-06T21:53:40.772Z,7.97
2023-01-06T21:56:25.479Z,6.60
2023-01-06T21:59:05.468Z,6.13
2023-01-06T22:01:56.523Z,7.50
2023-01-06T22:04:44.575Z,7.13
2023-01-06T22:07:13.086Z,6.53
2023-01-06T22:09:42.365Z,7.23
2023-01-06T22:12:13.341Z,7.57
2023-01-06T22:14:40.787Z,6.63
2023-01-06T22:17:08.186Z,6.70
2023-01-06T22:19:35.651Z,7.17
2023-01-06T22:22:03.216Z,7.67
2023-01-06T22:24:31.749Z,7.70
2023-01-06T22:26:58.953Z,7.60
2023-01-06T22:29:26.038Z,8.03
2023-01-06T22:31:53.197Z,8.43
2023-01-06T22:34:20.427Z,8.10
2023-01-06T22:36:47.345Z,8.23
2023-01-06T22:39:14.281Z,8.27
2023-01-06T22:41:41.189Z,8.57
2023-01-06T22:44:08.219Z,8.10
2023-01-06T22:46:35.158Z,8.73
2023-01-06T22:49:02.191Z,7.60
2023-01-06T22:51:29.145Z,7.87
2023-01-06T22:53:57.029Z,7.50
2023-01-06T22:56:24.299Z,7.43
2023-01-06T22:58:51.277Z,8.87
2023-01-06T23:01:18.225Z,7.93
2023-01-06T23:03:45.202Z,7.33
2023-01-06T23:06:14.675Z,8.43
2023-01-06T23:08:58.410Z,6.70
2023-01-06T23:11:28.021Z,7.87
2023-01-06T23:13:57.533Z,7.60
2023-01-06T23:16:26.378Z,7.37
2023-01-06T23:18:54.136Z,7.20
2023-01-06T23:21:26.929Z,6.47
2023-01-06T23:23:54.215Z,7.23
2023-01-06T23:26:34.648Z,5.30
2023-01-06T23:29:02.210Z,6.20
2023-01-06T23:31:32.759Z,6.47
2023-01-06T23:34:05.781Z,5.70
2023-01-06T23:36:33.067Z,6.33
2023-01-06T23:39:02.227Z,5.70
2023-01-06T23:41:33.962Z,6.03
2023-01-06T23:44:02.143Z,6.70
2023-01-06T23:46:35.877Z,5.37
2023-01-06T23:49:04.315Z,6.20
2023-01-06T23:51:32.332Z,6.40
2023-01-06T23:54:04.689Z,7.63
2023-01-06T23:56:34.803Z,6.10
2023-01-06T23:59:04.336Z,6.47
